Time;durP1;ratioP1;P1;durP2;ratioP2;P2;SDS_P1;SDS_P2;PMS_P1;PMS_P2;Temp;Humidity;BMP_temperature;BMP_pressure;BME280_temperature;BME280_humidity;BME280_pressure;Samples;Min_cycle;Max_cycle;Signal;HPM_P1;HPM_P2
2021/01/26 00:01:24;;;;;;;0.20;0.20;;;;;;;;;;5004013;28;20524;-73
2021/01/26 00:03:51;;;;;;;0.20;0.20;;;;;;;;;;4974789;28;20256;-74
2021/01/26 00:06:17;;;;;;;0.20;0.20;;;;;;;;;;4969264;28;20205;-74
2021/01/26 00:08:43;;;;;;;0.30;0.30;;;;;;;;;;4972203;28;20435;-74
2021/01/26 00:11:10;;;;;;;0.30;0.30;;;;;;;;;;4967943;28;20245;-73
2021/01/26 00:13:37;;;;;;;0.43;0.43;;;;;;;;;;4964796;28;20202;-73
2021/01/26 00:16:04;;;;;;;0.20;0.20;;;;;;;;;;4969012;28;20209;-74
2021/01/26 00:18:30;;;;;;;0.20;0.20;;;;;;;;;;4963291;28;20206;-73
2021/01/26 00:20:56;;;;;;;0.20;0.20;;;;;;;;;;4989254;28;20202;-74
2021/01/26 00:23:23;;;;;;;0.23;0.23;;;;;;;;;;4986568;28;20255;-74
2021/01/26 00:25:49;;;;;;;0.20;0.20;;;;;;;;;;4998325;28;20376;-74
2021/01/26 00:28:16;;;;;;;0.20;0.20;;;;;;;;;;4966889;28;20229;-74
2021/01/26 00:30:43;;;;;;;0.30;0.30;;;;;;;;;;4985755;28;20277;-70
2021/01/26 00:33:11;;;;;;;0.20;0.20;;;;;;;;;;4981460;28;20522;-74
2021/01/26 00:35:38;;;;;;;0.20;0.20;;;;;;;;;;4972506;28;20202;-75
2021/01/26 00:38:04;;;;;;;0.20;0.20;;;;;;;;;;4976236;28;20197;-74
2021/01/26 00:40:30;;;;;;;0.20;0.20;;;;;;;;;;4985940;28;20201;-74
2021/01/26 00:42:57;;;;;;;0.20;0.20;;;;;;;;;;4965675;28;20222;-74
2021/01/26 00:45:24;;;;;;;0.20;0.20;;;;;;;;;;4983958;28;20386;-74
2021/01/26 00:47:51;;;;;;;0.20;0.20;;;;;;;;;;4979684;28;20332;-74
2021/01/26 00:50:18;;;;;;;0.20;0.20;;;;;;;;;;4969196;28;20202;-74
2021/01/26 00:52:45;;;;;;;0.30;0.30;;;;;;;;;;4993673;28;20205;-74
2021/01/26 00:55:11;;;;;;;0.20;0.20;;;;;;;;;;4969876;28;20229;-75
2021/01/26 00:57:38;;;;;;;0.20;0.20;;;;;;;;;;4999912;28;20205;-74
2021/01/26 01:00:05;;;;;;;0.20;0.20;;;;;;;;;;4986720;28;20209;-74
2021/01/26 01:02:31;;;;;;;0.30;0.30;;;;;;;;;;4978701;28;20399;-73
2021/01/26 01:04:58;;;;;;;0.20;0.20;;;;;;;;;;4973943;28;20560;-74
2021/01/26 01:07:25;;;;;;;0.30;0.30;;;;;;;;;;4967972;28;20212;-74
2021/01/26 01:09:51;;;;;;;0.20;0.20;;;;;;;;;;4970264;28;20206;-74
2021/01/26 01:12:17;;;;;;;0.30;0.30;;;;;;;;;;4965533;28;20199;-74
2021/01/26 01:14:44;;;;;;;0.20;0.20;;;;;;;;;;4960342;28;20279;-73
2021/01/26 01:17:11;;;;;;;0.20;0.20;;;;;;;;;;4964798;28;20202;-74
2021/01/26 01:19:37;;;;;;;0.30;0.30;;;;;;;;;;4967505;28;20383;-73
2021/01/26 01:22:04;;;;;;;0.30;0.30;;;;;;;;;;4985552;28;20221;-74
2021/01/26 01:24:30;;;;;;;0.20;0.20;;;;;;;;;;4988703;28;20209;-74
2021/01/26 01:26:57;;;;;;;0.20;0.20;;;;;;;;;;4976217;28;20202;-73
2021/01/26 01:29:29;;;;;;;0.20;0.20;;;;;;;;;;4979215;28;20369;-73
2021/01/26 01:31:55;;;;;;;0.20;0.20;;;;;;;;;;4991263;28;20230;-73
2021/01/26 01:34:21;;;;;;;0.20;0.20;;;;;;;;;;4966718;28;20226;-73
2021/01/26 01:36:48;;;;;;;0.27;0.27;;;;;;;;;;4989059;28;20298;-73
2021/01/26 01:39:15;;;;;;;0.20;0.20;;;;;;;;;;4990511;28;20209;-72
2021/01/26 01:41:42;;;;;;;0.20;0.20;;;;;;;;;;4971130;28;20225;-74
2021/01/26 01:44:07;;;;;;;0.20;0.20;;;;;;;;;;4987165;28;20366;-75
2021/01/26 01:46:36;;;;;;;0.30;0.30;;;;;;;;;;4985454;28;20202;-72
2021/01/26 01:49:04;;;;;;;0.20;0.20;;;;;;;;;;4986725;28;20205;-75
2021/01/26 01:51:31;;;;;;;0.20;0.20;;;;;;;;;;4972642;28;20445;-74
2021/01/26 01:53:59;;;;;;;0.20;0.20;;;;;;;;;;4968868;28;20201;-72
2021/01/26 01:56:29;;;;;;;0.20;0.20;;;;;;;;;;5004694;28;20197;-74
2021/01/26 01:58:58;;;;;;;2.40;2.20;;;;;;;;;;4986390;28;20202;-73
2021/01/26 02:01:26;;;;;;;0.30;0.30;;;;;;;;;;4987444;28;20214;-70
2021/01/26 02:03:53;;;;;;;0.20;0.20;;;;;;;;;;4985569;28;20202;-73
2021/01/26 02:06:20;;;;;;;0.20;0.20;;;;;;;;;;4985426;28;20371;-74
2021/01/26 02:08:50;;;;;;;0.20;0.20;;;;;;;;;;4967806;28;20436;-74
2021/01/26 02:11:17;;;;;;;0.23;0.23;;;;;;;;;;4984282;28;20443;-74
2021/01/26 02:13:44;;;;;;;0.30;0.30;;;;;;;;;;4971614;28;20228;-75
2021/01/26 02:16:17;;;;;;;0.20;0.20;;;;;;;;;;4985618;28;20198;-74
2021/01/26 02:18:50;;;;;;;0.77;0.77;;;;;;;;;;4987880;28;20213;-74
2021/01/26 02:21:34;;;;;;;0.20;0.20;;;;;;;;;;4987211;28;20201;-74
2021/01/26 02:24:18;;;;;;;0.20;0.20;;;;;;;;;;4966710;28;20233;-75
2021/01/26 02:27:05;;;;;;;0.20;0.20;;;;;;;;;;4966999;28;20237;-74
2021/01/26 02:29:46;;;;;;;0.30;0.30;;;;;;;;;;4987650;28;20225;-74
2021/01/26 02:32:18;;;;;;;0.30;0.30;;;;;;;;;;4984529;28;20244;-73
2021/01/26 02:34:59;;;;;;;0.20;0.20;;;;;;;;;;4987330;28;20233;-75
2021/01/26 02:37:49;;;;;;;0.20;0.20;;;;;;;;;;4985807;28;20201;-73
2021/01/26 02:40:21;;;;;;;0.20;0.20;;;;;;;;;;4983846;28;20198;-73
2021/01/26 02:42:50;;;;;;;0.20;0.20;;;;;;;;;;4987727;28;20648;-72
2021/01/26 02:45:20;;;;;;;0.20;0.20;;;;;;;;;;4982041;28;20197;-74
2021/01/26 02:47:52;;;;;;;0.30;0.30;;;;;;;;;;4985768;28;20504;-74
2021/01/26 02:50:22;;;;;;;0.20;0.20;;;;;;;;;;4987465;28;20206;-74
2021/01/26 02:53:04;;;;;;;0.20;0.20;;;;;;;;;;4986039;28;20206;-72
2021/01/26 02:55:34;;;;;;;0.30;0.30;;;;;;;;;;4987556;28;20202;-74
2021/01/26 02:58:04;;;;;;;0.20;0.20;;;;;;;;;;4987337;28;20244;-73
2021/01/26 03:00:33;;;;;;;0.20;0.20;;;;;;;;;;4984967;28;20210;-73
2021/01/26 03:03:01;;;;;;;0.27;0.27;;;;;;;;;;4983326;28;20260;-74
2021/01/26 03:05:29;;;;;;;0.20;0.20;;;;;;;;;;4977732;28;20278;-74
2021/01/26 03:07:58;;;;;;;0.20;0.20;;;;;;;;;;4978612;28;20206;-73
2021/01/26 03:10:27;;;;;;;0.20;0.20;;;;;;;;;;4980893;28;20255;-72
2021/01/26 03:12:57;;;;;;;0.30;0.30;;;;;;;;;;4981366;28;20535;-73
2021/01/26 03:15:26;;;;;;;0.20;0.20;;;;;;;;;;4978700;28;20241;-74
2021/01/26 03:17:54;;;;;;;0.20;0.20;;;;;;;;;;4979272;28;20212;-74
2021/01/26 03:20:22;;;;;;;0.20;0.20;;;;;;;;;;4980600;28;20208;-73
2021/01/26 03:22:49;;;;;;;0.20;0.20;;;;;;;;;;4980195;28;20231;-73
2021/01/26 03:25:18;;;;;;;0.20;0.20;;;;;;;;;;4979578;28;20512;-73
2021/01/26 03:27:45;;;;;;;0.20;0.20;;;;;;;;;;4978471;28;20264;-74
2021/01/26 03:30:14;;;;;;;0.30;0.30;;;;;;;;;;4982477;28;20206;-74
2021/01/26 03:32:43;;;;;;;0.20;0.20;;;;;;;;;;4978242;28;20208;-71
2021/01/26 03:35:10;;;;;;;0.30;0.30;;;;;;;;;;4980010;28;20201;-75
2021/01/26 03:37:37;;;;;;;0.20;0.20;;;;;;;;;;4957162;28;20212;-74
2021/01/26 03:40:04;;;;;;;0.20;0.20;;;;;;;;;;4962174;28;20198;-73
2021/01/26 03:42:31;;;;;;;0.20;0.20;;;;;;;;;;4962735;28;20237;-74
2021/01/26 03:44:57;;;;;;;0.20;0.20;;;;;;;;;;4963304;28;20496;-73
2021/01/26 03:47:27;;;;;;;0.20;0.20;;;;;;;;;;4953585;28;20209;-73
2021/01/26 03:50:01;;;;;;;0.20;0.20;;;;;;;;;;4960758;28;20431;-73
2021/01/26 03:52:37;;;;;;;0.20;0.20;;;;;;;;;;4978423;28;20198;-75
2021/01/26 03:55:09;;;;;;;0.20;0.20;;;;;;;;;;4982656;28;20219;-73
2021/01/26 03:57:42;;;;;;;0.20;0.20;;;;;;;;;;4977901;28;20317;-74
2021/01/26 04:00:10;;;;;;;0.20;0.20;;;;;;;;;;4981108;28;20249;-74
2021/01/26 04:02:44;;;;;;;0.30;0.30;;;;;;;;;;4982182;28;20222;-73
2021/01/26 04:05:15;;;;;;;0.20;0.20;;;;;;;;;;4980614;28;20203;-73
2021/01/26 04:07:44;;;;;;;0.20;0.20;;;;;;;;;;4982344;28;20217;-73
2021/01/26 04:10:13;;;;;;;0.20;0.20;;;;;;;;;;4975346;28;20222;-72
2021/01/26 04:12:40;;;;;;;0.30;0.30;;;;;;;;;;4979077;28;20206;-74
2021/01/26 04:15:09;;;;;;;0.20;0.20;;;;;;;;;;4979902;28;20252;-75
2021/01/26 04:17:37;;;;;;;0.20;0.20;;;;;;;;;;4974270;28;20272;-74
2021/01/26 04:20:06;;;;;;;0.27;0.27;;;;;;;;;;4957669;28;20375;-72
2021/01/26 04:22:32;;;;;;;0.20;0.20;;;;;;;;;;4999272;28;20253;-74
2021/01/26 04:24:58;;;;;;;0.20;0.20;;;;;;;;;;4960951;28;20232;-75
2021/01/26 04:27:25;;;;;;;0.20;0.20;;;;;;;;;;4960721;28;20515;-73
2021/01/26 04:29:51;;;;;;;0.20;0.20;;;;;;;;;;4976975;28;20224;-73
2021/01/26 04:32:19;;;;;;;0.20;0.20;;;;;;;;;;4977142;28;20219;-74
2021/01/26 04:34:45;;;;;;;0.20;0.20;;;;;;;;;;4965911;28;20231;-74
2021/01/26 04:37:12;;;;;;;0.20;0.20;;;;;;;;;;4981828;28;20225;-74
2021/01/26 04:39:41;;;;;;;0.20;0.20;;;;;;;;;;4963623;28;20374;-74
2021/01/26 04:42:11;;;;;;;0.20;0.20;;;;;;;;;;4975288;28;20244;-75
2021/01/26 04:44:44;;;;;;;0.20;0.20;;;;;;;;;;4984906;28;20201;-74
2021/01/26 04:47:16;;;;;;;0.20;0.20;;;;;;;;;;4980287;28;20505;-74
2021/01/26 04:49:45;;;;;;;0.30;0.30;;;;;;;;;;4980033;28;20272;-75
2021/01/26 04:52:16;;;;;;;0.20;0.20;;;;;;;;;;4986316;28;20274;-75
2021/01/26 04:54:49;;;;;;;0.20;0.20;;;;;;;;;;4982729;28;20224;-74
2021/01/26 04:57:33;;;;;;;0.30;0.30;;;;;;;;;;4977151;28;20214;-75
2021/01/26 05:00:12;;;;;;;0.30;0.30;;;;;;;;;;4971262;28;20197;-74
2021/01/26 05:02:44;;;;;;;0.27;0.27;;;;;;;;;;4982853;28;20222;-75
2021/01/26 05:05:11;;;;;;;0.20;0.20;;;;;;;;;;4980439;28;20202;-72
2021/01/26 05:07:42;;;;;;;0.30;0.30;;;;;;;;;;4979705;28;20217;-74
2021/01/26 05:10:10;;;;;;;0.30;0.30;;;;;;;;;;4980766;28;20208;-75
2021/01/26 05:12:39;;;;;;;0.30;0.30;;;;;;;;;;4985849;28;20206;-74
2021/01/26 05:15:07;;;;;;;0.30;0.30;;;;;;;;;;4982211;28;20210;-74
2021/01/26 05:17:36;;;;;;;0.27;0.27;;;;;;;;;;4982283;28;20417;-74
2021/01/26 05:20:04;;;;;;;0.23;0.23;;;;;;;;;;4979649;28;20210;-74
2021/01/26 05:22:35;;;;;;;0.57;0.57;;;;;;;;;;4980268;28;20252;-74
2021/01/26 05:25:04;;;;;;;0.30;0.30;;;;;;;;;;4984515;28;20422;-76
2021/01/26 05:27:30;;;;;;;0.40;0.40;;;;;;;;;;4998726;28;20212;-73
2021/01/26 05:29:57;;;;;;;0.30;0.30;;;;;;;;;;4969039;28;20213;-74
2021/01/26 05:32:23;;;;;;;0.20;0.20;;;;;;;;;;4982219;28;20636;-74
2021/01/26 05:34:51;;;;;;;0.30;0.30;;;;;;;;;;4983842;28;20515;-73
2021/01/26 05:37:17;;;;;;;0.30;0.30;;;;;;;;;;4967322;28;20212;-74
2021/01/26 05:39:45;;;;;;;1.13;1.13;;;;;;;;;;4964632;28;20217;-74
2021/01/26 05:42:14;;;;;;;0.33;0.33;;;;;;;;;;4963648;28;20239;-73
2021/01/26 05:44:41;;;;;;;0.30;0.30;;;;;;;;;;4984265;28;20203;-73
2021/01/26 05:47:19;;;;;;;0.20;0.20;;;;;;;;;;4999939;28;20226;-71
2021/01/26 05:49:45;;;;;;;0.20;0.20;;;;;;;;;;4980437;28;20281;-74
2021/01/26 05:52:12;;;;;;;0.20;0.20;;;;;;;;;;4984580;28;20302;-74
2021/01/26 05:54:44;;;;;;;0.30;0.30;;;;;;;;;;4981218;28;20206;-74
2021/01/26 05:57:10;;;;;;;0.30;0.30;;;;;;;;;;4984546;28;20273;-73
2021/01/26 05:59:38;;;;;;;0.30;0.30;;;;;;;;;;4983990;28;20209;-74
2021/01/26 06:02:12;;;;;;;0.30;0.30;;;;;;;;;;4970390;28;20226;-72
2021/01/26 06:04:39;;;;;;;0.20;0.20;;;;;;;;;;4985362;28;20252;-73
2021/01/26 06:07:05;;;;;;;0.30;0.30;;;;;;;;;;4967327;28;20432;-73
2021/01/26 06:09:34;;;;;;;0.67;0.67;;;;;;;;;;4985769;28;20497;-74
2021/01/26 06:12:04;;;;;;;0.30;0.30;;;;;;;;;;4958551;28;20378;-74
2021/01/26 06:14:30;;;;;;;0.30;0.30;;;;;;;;;;4980333;28;20241;-73
2021/01/26 06:17:04;;;;;;;0.30;0.30;;;;;;;;;;4958807;28;20210;-73
2021/01/26 06:19:30;;;;;;;0.30;0.30;;;;;;;;;;4981146;28;20214;-75
2021/01/26 06:21:57;;;;;;;0.30;0.30;;;;;;;;;;4959887;28;20226;-72
2021/01/26 06:24:25;;;;;;;0.30;0.30;;;;;;;;;;4960711;28;20211;-74
2021/01/26 06:27:01;;;;;;;0.67;0.67;;;;;;;;;;4979666;28;20202;-74
2021/01/26 06:29:29;;;;;;;0.30;0.30;;;;;;;;;;4983069;28;20560;-73
2021/01/26 06:32:00;;;;;;;0.60;0.60;;;;;;;;;;4982801;28;20198;-74
2021/01/26 06:34:38;;;;;;;0.30;0.30;;;;;;;;;;4982724;28;20205;-75
2021/01/26 06:37:19;;;;;;;0.30;0.30;;;;;;;;;;4982951;28;20206;-75
2021/01/26 06:39:52;;;;;;;4.13;3.80;;;;;;;;;;4981458;28;20206;-76
2021/01/26 06:42:22;;;;;;;0.30;0.30;;;;;;;;;;4983007;28;20226;-74
2021/01/26 06:44:53;;;;;;;0.30;0.30;;;;;;;;;;4980676;28;20205;-74
2021/01/26 06:47:48;;;;;;;0.30;0.30;;;;;;;;;;4981917;28;20272;-74
2021/01/26 06:50:24;;;;;;;0.20;0.20;;;;;;;;;;4983195;28;20202;-73
2021/01/26 06:52:57;;;;;;;0.37;0.37;;;;;;;;;;4980637;28;20269;-74
2021/01/26 06:55:34;;;;;;;2.37;2.20;;;;;;;;;;4977243;28;20274;-73
2021/01/26 06:58:18;;;;;;;0.40;0.40;;;;;;;;;;4976050;28;20209;-73
2021/01/26 07:00:50;;;;;;;0.30;0.30;;;;;;;;;;4978353;28;20255;-75
2021/01/26 07:03:35;;;;;;;2.40;2.30;;;;;;;;;;4981114;28;20225;-74
2021/01/26 07:06:10;;;;;;;2.87;2.73;;;;;;;;;;4985453;28;20205;-73
2021/01/26 07:08:52;;;;;;;0.37;0.37;;;;;;;;;;4987207;28;20213;-73
2021/01/26 07:11:36;;;;;;;0.30;0.30;;;;;;;;;;4971842;28;20369;-74
2021/01/26 07:14:08;;;;;;;0.30;0.30;;;;;;;;;;4978671;28;20280;-72
2021/01/26 07:16:42;;;;;;;0.30;0.30;;;;;;;;;;5004334;28;20201;-74
2021/01/26 07:19:19;;;;;;;0.30;0.30;;;;;;;;;;4983201;28;20229;-72
2021/01/26 07:21:55;;;;;;;0.30;0.30;;;;;;;;;;5005677;28;20205;-73
2021/01/26 07:24:27;;;;;;;0.30;0.30;;;;;;;;;;4988568;28;20216;-73
2021/01/26 07:27:10;;;;;;;0.30;0.30;;;;;;;;;;4985985;28;20204;-73
2021/01/26 07:29:42;;;;;;;0.30;0.30;;;;;;;;;;5002235;28;20438;-73
2021/01/26 07:32:13;;;;;;;0.30;0.30;;;;;;;;;;5001558;28;20280;-75
2021/01/26 07:34:42;;;;;;;0.30;0.30;;;;;;;;;;5004294;28;20205;-75
2021/01/26 07:37:13;;;;;;;0.30;0.30;;;;;;;;;;4982603;28;20198;-75
2021/01/26 07:39:41;;;;;;;0.30;0.30;;;;;;;;;;4995366;28;20233;-74
2021/01/26 07:42:10;;;;;;;0.30;0.30;;;;;;;;;;4989014;28;20368;-76
2021/01/26 07:44:39;;;;;;;0.30;0.30;;;;;;;;;;4979977;28;20224;-73
2021/01/26 07:47:09;;;;;;;0.30;0.30;;;;;;;;;;4967203;28;20252;-74
2021/01/26 07:49:38;;;;;;;0.30;0.30;;;;;;;;;;4986335;28;20229;-72
2021/01/26 07:52:06;;;;;;;9.53;9.13;;;;;;;;;;4986404;28;20473;-74
2021/01/26 07:54:35;;;;;;;0.30;0.30;;;;;;;;;;4985368;28;20248;-74
2021/01/26 07:57:03;;;;;;;0.30;0.30;;;;;;;;;;4966811;28;20512;-75
2021/01/26 07:59:32;;;;;;;0.30;0.30;;;;;;;;;;4971862;28;20208;-71
2021/01/26 08:01:59;;;;;;;0.60;0.60;;;;;;;;;;4964264;28;20377;-71
2021/01/26 08:04:27;;;;;;;0.37;0.37;;;;;;;;;;4984730;28;20210;-72
2021/01/26 08:06:55;;;;;;;0.30;0.30;;;;;;;;;;4985312;28;20229;-71
2021/01/26 08:09:24;;;;;;;0.30;0.30;;;;;;;;;;4966934;28;20241;-73
2021/01/26 08:12:08;;;;;;;0.23;0.23;;;;;;;;;;4986461;28;20201;-71
2021/01/26 08:14:38;;;;;;;0.23;0.23;;;;;;;;;;4985662;28;20198;-73
2021/01/26 08:17:09;;;;;;;0.30;0.30;;;;;;;;;;4995578;28;20201;-72
2021/01/26 08:19:36;;;;;;;0.30;0.30;;;;;;;;;;5002739;28;20202;-72
2021/01/26 08:22:14;;;;;;;0.33;0.33;;;;;;;;;;4981210;28;20273;-71
2021/01/26 08:24:41;;;;;;;0.30;0.30;;;;;;;;;;5000465;28;20217;-72
2021/01/26 08:27:28;;;;;;;0.33;0.33;;;;;;;;;;4984756;28;20384;-73
2021/01/26 08:29:56;;;;;;;0.50;0.50;;;;;;;;;;4971887;28;20400;-72
2021/01/26 08:32:41;;;;;;;0.23;0.23;;;;;;;;;;4964750;28;20243;-72
2021/01/26 08:35:08;;;;;;;0.20;0.20;;;;;;;;;;4980606;28;20218;-73
2021/01/26 08:37:45;;;;;;;0.30;0.30;;;;;;;;;;4984491;28;20275;-71
2021/01/26 08:40:13;;;;;;;0.30;0.30;;;;;;;;;;4986985;28;20210;-73
2021/01/26 08:42:53;;;;;;;0.20;0.20;;;;;;;;;;4969389;28;20222;-73
2021/01/26 08:45:45;;;;;;;0.30;0.30;;;;;;;;;;4989175;28;20497;-74
2021/01/26 08:48:21;;;;;;;0.20;0.20;;;;;;;;;;4989965;28;20306;-74
2021/01/26 08:51:02;;;;;;;0.20;0.20;;;;;;;;;;4986471;28;20201;-73
2021/01/26 08:53:33;;;;;;;0.20;0.20;;;;;;;;;;4989823;28;20197;-74
2021/01/26 08:56:00;;;;;;;0.20;0.20;;;;;;;;;;4989137;28;20210;-74
2021/01/26 08:58:37;;;;;;;0.30;0.30;;;;;;;;;;4985314;28;20252;-73
2021/01/26 09:01:04;;;;;;;0.23;0.23;;;;;;;;;;4988582;28;20229;-72
2021/01/26 09:03:35;;;;;;;0.20;0.20;;;;;;;;;;4988492;28;20532;-73
2021/01/26 09:06:03;;;;;;;0.20;0.20;;;;;;;;;;4970892;28;20589;-74
2021/01/26 09:08:47;;;;;;;0.20;0.20;;;;;;;;;;4988991;28;20501;-73
2021/01/26 09:11:14;;;;;;;0.20;0.20;;;;;;;;;;4970323;28;20201;-72
2021/01/26 09:13:42;;;;;;;0.20;0.20;;;;;;;;;;4970390;28;20466;-73
2021/01/26 09:16:15;;;;;;;0.20;0.20;;;;;;;;;;4988410;28;20213;-72
2021/01/26 09:18:42;;;;;;;0.20;0.20;;;;;;;;;;4989380;28;20204;-73
2021/01/26 09:21:12;;;;;;;0.30;0.30;;;;;;;;;;4972023;28;20521;-72
2021/01/26 09:23:40;;;;;;;0.20;0.20;;;;;;;;;;4987174;28;20446;-72
2021/01/26 09:26:10;;;;;;;0.20;0.20;;;;;;;;;;4972345;28;20282;-73
2021/01/26 09:28:39;;;;;;;0.20;0.20;;;;;;;;;;4989108;28;20191;-72
2021/01/26 09:31:06;;;;;;;0.13;0.13;;;;;;;;;;4988579;28;20456;-73
2021/01/26 09:33:34;;;;;;;0.20;0.20;;;;;;;;;;4970443;28;20205;-74
2021/01/26 09:36:09;;;;;;;0.20;0.20;;;;;;;;;;4968325;28;20208;-72
2021/01/26 09:38:37;;;;;;;0.10;0.10;;;;;;;;;;4986210;28;20207;-74
2021/01/26 09:41:05;;;;;;;0.20;0.20;;;;;;;;;;4988195;28;20519;-75
2021/01/26 09:43:34;;;;;;;0.20;0.20;;;;;;;;;;4983209;28;20425;-72
2021/01/26 09:46:02;;;;;;;0.13;0.13;;;;;;;;;;4988082;28;20200;-74
2021/01/26 09:48:33;;;;;;;0.20;0.20;;;;;;;;;;4988334;28;20209;-72
2021/01/26 09:51:06;;;;;;;0.20;0.20;;;;;;;;;;4980499;28;20209;-74
2021/01/26 09:53:33;;;;;;;0.20;0.20;;;;;;;;;;4988309;28;20214;-74
2021/01/26 09:55:59;;;;;;;0.10;0.10;;;;;;;;;;5004657;28;20447;-75
2021/01/26 09:58:30;;;;;;;0.17;0.17;;;;;;;;;;4989368;28;20213;-74
2021/01/26 10:00:57;;;;;;;0.20;0.20;;;;;;;;;;5007342;28;20209;-74
2021/01/26 10:03:24;;;;;;;0.20;0.20;;;;;;;;;;4963650;28;20309;-74
2021/01/26 10:05:53;;;;;;;0.17;0.17;;;;;;;;;;4972953;28;20232;-75
2021/01/26 10:08:25;;;;;;;0.10;0.10;;;;;;;;;;4989242;28;20408;-76
2021/01/26 10:10:52;;;;;;;0.10;0.10;;;;;;;;;;4987244;28;20256;-75
2021/01/26 10:13:19;;;;;;;0.10;0.10;;;;;;;;;;4997794;28;20199;-76
2021/01/26 10:15:46;;;;;;;0.10;0.10;;;;;;;;;;5006593;28;20210;-75
2021/01/26 10:18:15;;;;;;;0.10;0.10;;;;;;;;;;4980535;28;20202;-74
2021/01/26 10:20:50;;;;;;;0.10;0.10;;;;;;;;;;4985681;28;20206;-76
2021/01/26 10:23:23;;;;;;;0.10;0.10;;;;;;;;;;4976341;28;20254;-74
2021/01/26 10:25:50;;;;;;;0.20;0.20;;;;;;;;;;4988895;28;20201;-73
2021/01/26 10:28:24;;;;;;;0.10;0.10;;;;;;;;;;4988871;28;20325;-77
2021/01/26 10:30:50;;;;;;;0.10;0.10;;;;;;;;;;5007775;28;20399;-76
2021/01/26 10:33:32;;;;;;;0.20;0.20;;;;;;;;;;4989233;28;20203;-75
2021/01/26 10:36:13;;;;;;;0.10;0.10;;;;;;;;;;5005670;28;20228;-76
2021/01/26 10:38:46;;;;;;;0.10;0.10;;;;;;;;;;4985916;28;20227;-75
2021/01/26 10:41:18;;;;;;;0.10;0.10;;;;;;;;;;5007496;28;20478;-75
2021/01/26 10:43:44;;;;;;;0.10;0.10;;;;;;;;;;4999843;28;20222;-75
2021/01/26 10:46:12;;;;;;;0.10;0.10;;;;;;;;;;5007085;28;20267;-73
2021/01/26 10:48:43;;;;;;;0.10;0.10;;;;;;;;;;4989617;28;20299;-75
2021/01/26 10:51:15;;;;;;;0.10;0.10;;;;;;;;;;5007113;28;20516;-74
2021/01/26 10:53:43;;;;;;;0.10;0.10;;;;;;;;;;4989478;28;20201;-76
2021/01/26 10:56:09;;;;;;;0.10;0.10;;;;;;;;;;4989195;28;20201;-78
2021/01/26 10:58:37;;;;;;;0.20;0.20;;;;;;;;;;5006786;28;20276;-76
2021/01/26 11:01:03;;;;;;;0.10;0.10;;;;;;;;;;5006154;28;20260;-77
2021/01/26 11:03:29;;;;;;;0.10;0.10;;;;;;;;;;5006339;28;20411;-74
2021/01/26 11:05:56;;;;;;;0.10;0.10;;;;;;;;;;5006095;28;20427;-75
2021/01/26 11:08:22;;;;;;;0.40;0.40;;;;;;;;;;5006083;28;20217;-73
2021/01/26 11:10:49;;;;;;;0.40;0.40;;;;;;;;;;5005623;28;20237;-72
2021/01/26 11:13:16;;;;;;;0.10;0.10;;;;;;;;;;4970986;28;20241;-75
2021/01/26 11:15:43;;;;;;;0.10;0.10;;;;;;;;;;4987187;28;20496;-66
2021/01/26 11:18:10;;;;;;;0.13;0.13;;;;;;;;;;4974327;28;20233;-65
2021/01/26 11:20:37;;;;;;;0.10;0.10;;;;;;;;;;5005182;28;20224;-66
2021/01/26 11:23:04;;;;;;;3.00;0.97;;;;;;;;;;4968794;28;20229;-69
2021/01/26 11:25:31;;;;;;;0.10;0.10;;;;;;;;;;4971250;28;20394;-67
2021/01/26 11:27:58;;;;;;;0.10;0.10;;;;;;;;;;4972527;28;20202;-69
2021/01/26 11:30:25;;;;;;;0.13;0.13;;;;;;;;;;4972232;28;20230;-68
2021/01/26 11:32:52;;;;;;;0.10;0.10;;;;;;;;;;4986580;28;20198;-67
2021/01/26 11:35:20;;;;;;;0.10;0.10;;;;;;;;;;4986407;28;20201;-67
2021/01/26 11:37:46;;;;;;;0.10;0.10;;;;;;;;;;5004603;28;20258;-66
2021/01/26 11:40:13;;;;;;;0.10;0.10;;;;;;;;;;5004667;28;20245;-67
2021/01/26 11:42:40;;;;;;;0.10;0.10;;;;;;;;;;5004674;28;20226;-68
2021/01/26 11:45:08;;;;;;;0.10;0.10;;;;;;;;;;4971638;28;20198;-66
2021/01/26 11:47:35;;;;;;;0.10;0.10;;;;;;;;;;5002074;28;20209;-66
2021/01/26 11:50:04;;;;;;;0.10;0.10;;;;;;;;;;4969712;28;20238;-71
2021/01/26 11:52:30;;;;;;;0.10;0.10;;;;;;;;;;4969627;28;20198;-71
2021/01/26 11:54:57;;;;;;;0.10;0.10;;;;;;;;;;4984160;28;20373;-70
2021/01/26 11:57:24;;;;;;;0.10;0.10;;;;;;;;;;4970226;28;20205;-71
2021/01/26 11:59:50;;;;;;;0.10;0.10;;;;;;;;;;5001103;28;20224;-70
2021/01/26 12:02:16;;;;;;;0.20;0.20;;;;;;;;;;4986198;28;20201;-72
2021/01/26 12:04:43;;;;;;;0.10;0.10;;;;;;;;;;4985120;28;20277;-71
2021/01/26 12:07:11;;;;;;;0.10;0.10;;;;;;;;;;4986910;28;20208;-70
2021/01/26 12:09:37;;;;;;;0.17;0.17;;;;;;;;;;4986223;28;20208;-72
2021/01/26 12:12:05;;;;;;;0.10;0.10;;;;;;;;;;5004368;28;20504;-71
2021/01/26 12:14:33;;;;;;;0.10;0.10;;;;;;;;;;4986164;28;20293;-71
2021/01/26 12:16:59;;;;;;;0.10;0.10;;;;;;;;;;5004356;28;20256;-72
2021/01/26 12:19:26;;;;;;;0.20;0.20;;;;;;;;;;5004732;28;20239;-72
2021/01/26 12:21:53;;;;;;;0.20;0.20;;;;;;;;;;5004367;28;20384;-71
2021/01/26 12:24:22;;;;;;;0.20;0.20;;;;;;;;;;4984482;28;20236;-72
2021/01/26 12:26:49;;;;;;;0.13;0.13;;;;;;;;;;4986373;28;20496;-72
2021/01/26 12:29:16;;;;;;;0.20;0.20;;;;;;;;;;4985582;28;20204;-70
2021/01/26 12:31:43;;;;;;;0.20;0.20;;;;;;;;;;4987165;28;20456;-71
2021/01/26 12:34:10;;;;;;;0.30;0.30;;;;;;;;;;5004585;28;20509;-72
2021/01/26 12:36:37;;;;;;;0.20;0.20;;;;;;;;;;4988669;28;20434;-73
2021/01/26 12:39:04;;;;;;;0.20;0.20;;;;;;;;;;4984239;28;20205;-72
2021/01/26 12:41:32;;;;;;;0.20;0.20;;;;;;;;;;4986158;28;20209;-70
2021/01/26 12:43:59;;;;;;;0.20;0.20;;;;;;;;;;4985878;28;20230;-72
2021/01/26 12:46:26;;;;;;;0.20;0.20;;;;;;;;;;4997702;28;20213;-70
2021/01/26 12:48:53;;;;;;;0.20;0.20;;;;;;;;;;4969477;28;20206;-70
2021/01/26 12:51:21;;;;;;;0.20;0.20;;;;;;;;;;4966743;28;20465;-72
2021/01/26 12:53:47;;;;;;;0.10;0.10;;;;;;;;;;4987222;28;20255;-71
2021/01/26 12:56:14;;;;;;;0.20;0.20;;;;;;;;;;4983495;28;20458;-71
2021/01/26 12:58:42;;;;;;;0.10;0.10;;;;;;;;;;4968930;28;20632;-70
2021/01/26 13:01:09;;;;;;;0.20;0.20;;;;;;;;;;4971300;28;20207;-71
2021/01/26 13:03:36;;;;;;;0.50;0.50;;;;;;;;;;4986817;28;20540;-70
2021/01/26 13:06:02;;;;;;;0.30;0.30;;;;;;;;;;4984372;28;20201;-72
2021/01/26 13:08:29;;;;;;;0.20;0.20;;;;;;;;;;4986873;28;20199;-70
2021/01/26 13:10:56;;;;;;;0.20;0.20;;;;;;;;;;5003447;28;20206;-71
2021/01/26 13:13:22;;;;;;;0.20;0.20;;;;;;;;;;4969459;28;20201;-70
2021/01/26 13:15:50;;;;;;;0.20;0.20;;;;;;;;;;4985819;28;20198;-71
2021/01/26 13:18:16;;;;;;;0.20;0.20;;;;;;;;;;4984816;28;20371;-72
2021/01/26 13:20:43;;;;;;;0.20;0.20;;;;;;;;;;4986939;28;20204;-72
2021/01/26 13:23:10;;;;;;;0.20;0.20;;;;;;;;;;4980392;28;20227;-70
2021/01/26 13:25:36;;;;;;;0.20;0.20;;;;;;;;;;4985533;28;20547;-71
2021/01/26 13:28:04;;;;;;;0.57;0.57;;;;;;;;;;4985535;28;20395;-72
2021/01/26 13:30:31;;;;;;;0.20;0.20;;;;;;;;;;4989101;28;20226;-71
2021/01/26 13:32:59;;;;;;;0.20;0.20;;;;;;;;;;5008146;28;20209;-70
2021/01/26 13:35:27;;;;;;;0.20;0.20;;;;;;;;;;4990234;28;20253;-71
2021/01/26 13:37:53;;;;;;;0.30;0.30;;;;;;;;;;5007179;28;20286;-71
2021/01/26 13:40:20;;;;;;;0.27;0.27;;;;;;;;;;4988201;28;20221;-72
2021/01/26 13:42:46;;;;;;;0.20;0.20;;;;;;;;;;4988415;28;20260;-73
2021/01/26 13:45:14;;;;;;;0.20;0.20;;;;;;;;;;4986667;28;20198;-72
2021/01/26 13:47:42;;;;;;;0.20;0.20;;;;;;;;;;4969418;28;20202;-71
2021/01/26 13:50:13;;;;;;;0.20;0.20;;;;;;;;;;4987046;28;20210;-71
2021/01/26 13:52:40;;;;;;;0.20;0.20;;;;;;;;;;4989322;28;20217;-71
2021/01/26 13:55:08;;;;;;;0.20;0.20;;;;;;;;;;4989357;28;20210;-71
2021/01/26 13:57:37;;;;;;;0.20;0.20;;;;;;;;;;4986592;28;20202;-71
2021/01/26 14:00:05;;;;;;;0.20;0.20;;;;;;;;;;4976818;28;20202;-72
2021/01/26 14:02:32;;;;;;;0.20;0.20;;;;;;;;;;4988794;28;20281;-71
2021/01/26 14:04:58;;;;;;;0.20;0.20;;;;;;;;;;4995284;28;20198;-71
2021/01/26 14:07:26;;;;;;;0.20;0.20;;;;;;;;;;4989599;28;20209;-72
2021/01/26 14:09:58;;;;;;;0.20;0.20;;;;;;;;;;5007726;28;20206;-72
2021/01/26 14:12:24;;;;;;;0.20;0.20;;;;;;;;;;5007661;28;20201;-72
2021/01/26 14:14:51;;;;;;;0.20;0.20;;;;;;;;;;4989695;28;20202;-72
2021/01/26 14:17:17;;;;;;;0.40;0.40;;;;;;;;;;4988063;28;20216;-72
2021/01/26 14:19:45;;;;;;;0.20;0.20;;;;;;;;;;4984256;28;20564;-72
2021/01/26 14:22:11;;;;;;;0.20;0.20;;;;;;;;;;4986732;28;20251;-73
2021/01/26 14:24:39;;;;;;;0.20;0.20;;;;;;;;;;4986568;28;20229;-72
2021/01/26 14:27:06;;;;;;;0.20;0.20;;;;;;;;;;4972735;28;20206;-72
2021/01/26 14:29:33;;;;;;;0.60;0.60;;;;;;;;;;4968689;28;20520;-72
2021/01/26 14:32:00;;;;;;;1.17;1.17;;;;;;;;;;4978195;28;20212;-71
2021/01/26 14:34:27;;;;;;;0.20;0.20;;;;;;;;;;4970945;28;20201;-71
2021/01/26 14:36:53;;;;;;;0.20;0.20;;;;;;;;;;4962103;28;20265;-70
2021/01/26 14:39:20;;;;;;;0.20;0.20;;;;;;;;;;4987710;28;20198;-71
2021/01/26 14:41:48;;;;;;;0.20;0.20;;;;;;;;;;4988089;28;20512;-71
2021/01/26 14:44:15;;;;;;;0.20;0.20;;;;;;;;;;4986669;28;20249;-73
2021/01/26 14:46:41;;;;;;;0.20;0.20;;;;;;;;;;4988320;28;20206;-71
2021/01/26 14:49:08;;;;;;;0.20;0.20;;;;;;;;;;5007249;28;20229;-72
2021/01/26 14:51:35;;;;;;;0.30;0.30;;;;;;;;;;4987847;28;20248;-73
2021/01/26 14:54:02;;;;;;;0.20;0.20;;;;;;;;;;4986641;28;20198;-73
2021/01/26 14:56:28;;;;;;;0.20;0.20;;;;;;;;;;4986415;28;20222;-71